createdAt,value
2017-07-29T00:01:24.495Z,72.60
2017-07-29T00:03:51.957Z,73.10
2017-07-29T00:06:19.381Z,73.10
2017-07-29T00:08:46.821Z,72.90
2017-07-29T00:11:15.033Z,72.60
2017-07-29T00:13:42.458Z,72.50
2017-07-29T00:16:09.872Z,72.50
2017-07-29T00:18:37.313Z,72.20
2017-07-29T00:21:04.746Z,72.60
2017-07-29T00:23:32.161Z,72.30
2017-07-29T00:26:00.381Z,72.90
2017-07-29T00:28:27.811Z,72.80
2017-07-29T00:30:55.235Z,73.80
2017-07-29T00:33:22.648Z,74.20
2017-07-29T00:35:50.092Z,74.40
2017-07-29T00:38:17.504Z,74.70
2017-07-29T00:40:45.693Z,75.60
2017-07-29T00:43:13.884Z,75.70
2017-07-29T00:45:41.304Z,75.60
2017-07-29T00:48:08.716Z,75.50
2017-07-29T00:50:36.149Z,75.40
2017-07-29T00:53:03.572Z,75.30
2017-07-29T00:55:31.002Z,75.70
2017-07-29T00:57:58.432Z,76.10
2017-07-29T01:00:25.848Z,75.50
2017-07-29T01:02:54.039Z,76.10
2017-07-29T01:05:21.461Z,76.00
2017-07-29T01:07:48.888Z,76.20
2017-07-29T01:10:16.318Z,76.00
2017-07-29T01:12:43.793Z,75.90
2017-07-29T01:15:11.232Z,75.80
2017-07-29T01:17:38.656Z,75.80
2017-07-29T01:20:06.836Z,75.80
2017-07-29T01:22:35.020Z,75.40
2017-07-29T01:25:02.440Z,75.40
2017-07-29T01:27:29.864Z,75.40
2017-07-29T01:29:57.281Z,75.30
2017-07-29T01:32:24.714Z,75.30
2017-07-29T01:34:52.136Z,75.20
2017-07-29T01:37:19.556Z,75.20
2017-07-29T01:39:46.986Z,75.50
2017-07-29T01:42:15.179Z,76.90
2017-07-29T01:44:42.617Z,76.00
2017-07-29T01:47:10.799Z,75.30
2017-07-29T01:49:38.225Z,75.80
2017-07-29T01:52:05.684Z,75.90
2017-07-29T01:54:33.107Z,75.90
2017-07-29T01:57:00.512Z,76.10
2017-07-29T01:59:28.708Z,76.40
2017-07-29T02:01:56.120Z,76.30
2017-07-29T02:04:23.540Z,76.60
2017-07-29T02:06:50.968Z,76.40
2017-07-29T02:09:18.403Z,76.50
2017-07-29T02:11:46.602Z,76.20
2017-07-29T02:14:14.016Z,76.40
2017-07-29T02:16:41.448Z,76.60
2017-07-29T02:19:08.855Z,77.00
2017-07-29T02:21:37.060Z,77.10
2017-07-29T02:24:04.473Z,77.00
2017-07-29T02:26:32.661Z,77.30
2017-07-29T02:29:00.845Z,77.20
2017-07-29T02:31:28.387Z,77.20
2017-07-29T02:33:56.563Z,77.60
2017-07-29T02:36:24.745Z,77.70
2017-07-29T02:38:52.176Z,77.70
2017-07-29T02:41:20.380Z,77.90
2017-07-29T02:43:47.813Z,78.20
2017-07-29T02:46:16.016Z,78.60
2017-07-29T02:48:43.440Z,78.60
2017-07-29T02:51:11.627Z,78.70
2017-07-29T02:53:39.047Z,78.70
2017-07-29T02:56:06.488Z,78.50
2017-07-29T02:58:33.900Z,78.80
2017-07-29T03:01:01.320Z,78.90
2017-07-29T03:03:28.745Z,79.00
2017-07-29T03:05:56.177Z,78.90
2017-07-29T03:08:23.612Z,79.00
2017-07-29T03:10:51.792Z,78.80
2017-07-29T03:13:19.229Z,78.70
2017-07-29T03:15:46.638Z,78.90
2017-07-29T03:18:14.063Z,78.70
2017-07-29T03:20:41.485Z,78.90
2017-07-29T03:23:08.909Z,79.20
2017-07-29T03:25:36.328Z,79.20
2017-07-29T03:28:03.751Z,78.90
2017-07-29T03:30:31.173Z,78.90
2017-07-29T03:32:58.606Z,79.00
2017-07-29T03:35:26.027Z,79.20
2017-07-29T03:37:54.217Z,79.00
2017-07-29T03:40:22.399Z,79.30
2017-07-29T03:42:49.824Z,79.30
2017-07-29T03:45:17.280Z,79.30
2017-07-29T03:47:44.684Z,79.40
2017-07-29T03:50:12.104Z,79.30
2017-07-29T03:52:40.292Z,79.80
2017-07-29T03:55:07.722Z,79.70
2017-07-29T03:57:35.137Z,79.50
2017-07-29T04:00:02.555Z,79.40
2017-07-29T04:02:29.987Z,79.40
2017-07-29T04:04:57.401Z,79.60
2017-07-29T04:07:24.845Z,79.90
2017-07-29T04:09:52.264Z,80.10
2017-07-29T04:12:20.448Z,80.60
2017-07-29T04:14:47.860Z,80.50
2017-07-29T04:17:15.275Z,80.60
2017-07-29T04:19:42.709Z,80.60
2017-07-29T04:22:10.891Z,81.00
2017-07-29T04:24:38.329Z,81.00
2017-07-29T04:27:06.533Z,81.90
2017-07-29T04:29:33.947Z,81.70
2017-07-29T04:32:01.372Z,81.60
2017-07-29T04:34:28.788Z,82.30
2017-07-29T04:36:56.216Z,82.10
2017-07-29T04:39:23.640Z,82.00
2017-07-29T04:41:51.075Z,82.10
2017-07-29T04:44:18.476Z,82.00
2017-07-29T04:46:45.912Z,81.90
2017-07-29T04:49:13.327Z,82.00
2017-07-29T04:51:40.744Z,82.00
2017-07-29T04:54:08.160Z,81.80
2017-07-29T04:56:35.580Z,81.50
2017-07-29T04:59:03.766Z,81.30
2017-07-29T05:01:31.179Z,81.30
2017-07-29T05:03:58.609Z,80.70
2017-07-29T05:06:26.032Z,80.70
2017-07-29T05:08:53.457Z,80.80
2017-07-29T05:11:21.654Z,80.10
2017-07-29T05:13:49.069Z,80.30
2017-07-29T05:16:16.496Z,79.70
2017-07-29T05:18:43.965Z,79.80
2017-07-29T05:21:11.397Z,79.30
2017-07-29T05:23:38.812Z,79.20
2017-07-29T05:26:07.013Z,79.40
2017-07-29T05:28:34.423Z,79.30
2017-07-29T05:31:01.864Z,79.30
2017-07-29T05:33:29.293Z,78.70
2017-07-29T05:35:56.720Z,78.80
2017-07-29T05:38:24.909Z,79.40
2017-07-29T05:40:52.328Z,79.30
2017-07-29T05:43:20.519Z,79.90
2017-07-29T05:45:48.714Z,80.00
2017-07-29T05:48:16.137Z,80.00
2017-07-29T05:50:44.328Z,81.20
2017-07-29T05:53:11.776Z,80.30
2017-07-29T05:55:39.184Z,80.40
2017-07-29T05:58:06.616Z,80.70
2017-07-29T06:00:34.030Z,79.80
2017-07-29T06:03:02.219Z,81.10
2017-07-29T06:05:30.456Z,80.20
2017-07-29T06:07:57.887Z,80.10
2017-07-29T06:10:25.321Z,78.20
2017-07-29T06:12:52.735Z,78.20
2017-07-29T06:15:20.160Z,77.00
2017-07-29T06:17:47.608Z,75.60
2017-07-29T06:20:15.037Z,75.20
2017-07-29T06:22:42.460Z,74.50
2017-07-29T06:25:09.900Z,74.40
2017-07-29T06:27:37.329Z,74.20
2017-07-29T06:30:04.748Z,74.20
2017-07-29T06:32:32.924Z,73.70
2017-07-29T06:35:01.108Z,73.80
2017-07-29T06:37:28.538Z,73.80
2017-07-29T06:39:55.952Z,73.80
2017-07-29T06:42:23.383Z,73.90
2017-07-29T06:44:50.811Z,73.70
2017-07-29T06:47:18.992Z,73.20
2017-07-29T06:49:47.184Z,73.40
2017-07-29T06:52:15.043Z,73.40
2017-07-29T06:54:42.464Z,73.30
2017-07-29T06:57:09.967Z,73.20
2017-07-29T06:59:37.364Z,72.80
2017-07-29T07:02:04.786Z,72.30
2017-07-29T07:04:32.207Z,72.50
2017-07-29T07:06:59.917Z,72.60
2017-07-29T07:09:27.389Z,72.80
2017-07-29T07:11:54.990Z,72.50
2017-07-29T07:14:23.339Z,72.50
2017-07-29T07:16:50.761Z,72.30
2017-07-29T07:19:18.266Z,72.40
2017-07-29T07:21:46.476Z,70.80
2017-07-29T07:24:13.952Z,71.00
2017-07-29T07:26:41.377Z,71.10
2017-07-29T07:29:08.934Z,71.10
2017-07-29T07:31:37.189Z,70.80
2017-07-29T07:34:05.447Z,71.40
2017-07-29T07:36:32.864Z,70.70
2017-07-29T07:39:00.397Z,70.30
2017-07-29T07:41:27.816Z,70.20
2017-07-29T07:43:55.240Z,69.90
2017-07-29T07:46:22.752Z,70.00
2017-07-29T07:48:50.950Z,69.70
2017-07-29T07:51:18.404Z,69.70
2017-07-29T07:53:45.939Z,70.30
2017-07-29T07:56:14.136Z,71.10
2017-07-29T07:58:41.570Z,71.10
2017-07-29T08:01:09.748Z,70.70
2017-07-29T08:03:37.938Z,70.00
2017-07-29T08:06:05.373Z,70.00
2017-07-29T08:08:33.556Z,70.00
2017-07-29T08:11:01.001Z,69.90
2017-07-29T08:13:29.197Z,69.90
2017-07-29T08:15:56.624Z,69.90
2017-07-29T08:18:24.078Z,69.70
2017-07-29T08:20:51.488Z,68.80
2017-07-29T08:23:18.920Z,69.00
2017-07-29T08:25:46.344Z,68.60
2017-07-29T08:28:14.554Z,68.60
2017-07-29T08:30:41.985Z,68.60
2017-07-29T08:33:10.183Z,67.30
2017-07-29T08:35:37.611Z,67.20
2017-07-29T08:38:05.821Z,66.70
2017-07-29T08:40:33.247Z,66.70
2017-07-29T08:43:01.427Z,65.50
2017-07-29T08:45:28.860Z,65.50
2017-07-29T08:47:57.050Z,64.70
2017-07-29T08:50:24.469Z,64.70
2017-07-29T08:52:51.899Z,65.00
2017-07-29T08:55:19.340Z,64.90
2017-07-29T08:57:46.765Z,64.30
2017-07-29T09:00:14.188Z,64.00
2017-07-29T09:02:41.620Z,64.50
2017-07-29T09:05:09.030Z,64.10
2017-07-29T09:07:37.268Z,63.60
2017-07-29T09:10:04.706Z,63.60
2017-07-29T09:12:32.124Z,62.20
2017-07-29T09:15:00.324Z,62.00
2017-07-29T09:17:27.741Z,62.00
2017-07-29T09:19:55.955Z,61.70
2017-07-29T09:22:23.401Z,61.70
2017-07-29T09:24:50.984Z,61.80
2017-07-29T09:27:18.472Z,61.20
2017-07-29T09:29:45.905Z,61.00
2017-07-29T09:32:13.330Z,60.90
2017-07-29T09:34:40.761Z,60.80
2017-07-29T09:37:08.965Z,60.30
2017-07-29T09:39:36.381Z,60.30
2017-07-29T09:42:04.598Z,60.70
2017-07-29T09:47:01.683Z,60.70
2017-07-29T09:49:29.856Z,59.70
2017-07-29T09:51:58.129Z,59.70
2017-07-29T09:54:26.308Z,59.70
2017-07-29T09:56:54.478Z,59.40
2017-07-29T09:59:22.666Z,59.50
2017-07-29T10:01:50.077Z,59.40
2017-07-29T10:04:17.486Z,58.80
2017-07-29T10:06:44.895Z,59.10
2017-07-29T10:09:12.314Z,59.60
2017-07-29T10:11:39.731Z,59.60
2017-07-29T10:14:07.906Z,59.20
2017-07-29T10:16:36.079Z,59.20
2017-07-29T10:19:04.252Z,59.20
2017-07-29T10:21:32.430Z,59.50
2017-07-29T10:23:59.862Z,59.40
2017-07-29T10:26:27.275Z,59.10
2017-07-29T10:28:54.682Z,58.90
2017-07-29T10:31:22.856Z,58.70
2017-07-29T10:33:51.030Z,58.30
2017-07-29T10:36:19.207Z,58.60
2017-07-29T10:38:47.370Z,58.10
2017-07-29T10:41:15.595Z,58.40
2017-07-29T10:43:42.998Z,58.40
2017-07-29T10:46:10.410Z,58.20
2017-07-29T10:48:37.819Z,58.10
2017-07-29T10:51:05.994Z,58.10
2017-07-29T10:53:34.163Z,58.10
2017-07-29T10:56:02.335Z,58.40
2017-07-29T10:58:31.279Z,58.90
2017-07-29T11:00:59.129Z,58.60
2017-07-29T11:03:26.527Z,58.30
2017-07-29T11:05:53.935Z,58.40
2017-07-29T11:08:21.352Z,58.60
2017-07-29T11:10:49.532Z,58.70
2017-07-29T11:13:17.712Z,58.70
2017-07-29T11:15:45.901Z,58.20
2017-07-29T11:18:13.310Z,58.20
2017-07-29T11:20:40.722Z,57.80
2017-07-29T11:23:08.122Z,57.90
2017-07-29T11:25:35.531Z,57.80
2017-07-29T11:28:03.314Z,57.90
2017-07-29T11:30:30.724Z,57.40
2017-07-29T11:32:58.935Z,57.70
2017-07-29T11:35:26.352Z,57.60
2017-07-29T11:37:54.611Z,57.20
2017-07-29T11:40:22.018Z,57.20
2017-07-29T11:42:49.472Z,57.00
2017-07-29T11:45:16.871Z,57.20
2017-07-29T11:47:44.285Z,57.00
2017-07-29T11:50:11.692Z,57.10
2017-07-29T11:52:39.108Z,57.70
2017-07-29T11:55:07.375Z,57.40
2017-07-29T11:57:34.796Z,56.80
2017-07-29T12:00:02.970Z,57.30
2017-07-29T12:02:31.142Z,56.70
2017-07-29T12:04:59.353Z,56.70
2017-07-29T12:07:26.768Z,56.70
2017-07-29T12:09:54.934Z,56.20
2017-07-29T12:12:23.115Z,56.00
2017-07-29T12:14:51.283Z,55.60
2017-07-29T12:17:19.509Z,55.10
2017-07-29T12:19:46.934Z,54.80
2017-07-29T12:22:15.144Z,55.70
2017-07-29T12:24:42.559Z,55.60
2017-07-29T12:27:10.748Z,56.70
2017-07-29T12:29:38.164Z,56.70
2017-07-29T12:32:05.588Z,56.20
2017-07-29T12:34:33.207Z,55.60
2017-07-29T12:37:00.593Z,54.50
2017-07-29T12:39:28.078Z,54.20
2017-07-29T12:41:55.508Z,54.80
2017-07-29T12:44:22.923Z,54.50
2017-07-29T12:46:51.162Z,53.70
2017-07-29T12:49:18.590Z,53.70
2017-07-29T12:51:45.985Z,52.30
2017-07-29T12:54:13.427Z,49.50
2017-07-29T12:56:41.452Z,47.70
2017-07-29T12:59:09.011Z,46.80
2017-07-29T13:01:37.164Z,47.50
2017-07-29T13:04:05.343Z,46.70
2017-07-29T13:06:33.587Z,46.40
2017-07-29T13:09:00.991Z,46.40
2017-07-29T13:11:28.727Z,44.80
2017-07-29T13:13:56.495Z,44.00
2017-07-29T13:16:23.878Z,43.30
2017-07-29T13:18:52.095Z,46.20
2017-07-29T13:21:19.511Z,46.00
2017-07-29T13:23:46.938Z,47.50
2017-07-29T13:26:15.111Z,48.80
2017-07-29T13:28:43.274Z,48.80
2017-07-29T13:31:11.464Z,47.30
2017-07-29T13:33:39.630Z,46.90
2017-07-29T13:36:07.043Z,46.90
2017-07-29T13:38:34.451Z,44.30
2017-07-29T13:41:02.884Z,42.50
2017-07-29T13:43:30.279Z,42.40
2017-07-29T13:45:58.466Z,42.40
2017-07-29T13:48:25.950Z,42.30
2017-07-29T13:50:53.357Z,43.20
2017-07-29T13:53:21.547Z,43.50
2017-07-29T13:55:49.732Z,41.70
2017-07-29T13:58:17.135Z,41.70
2017-07-29T14:00:44.717Z,42.20
2017-07-29T14:03:12.107Z,42.50
2017-07-29T14:05:39.547Z,42.80
2017-07-29T14:08:07.855Z,48.40
2017-07-29T14:10:35.275Z,48.40
2017-07-29T14:13:03.458Z,50.90
2017-07-29T14:15:30.877Z,50.90
2017-07-29T14:17:58.283Z,51.50
2017-07-29T14:20:25.687Z,52.00
2017-07-29T14:22:53.104Z,51.60
2017-07-29T14:25:20.567Z,50.30
2017-07-29T14:27:47.987Z,49.90
2017-07-29T14:30:16.171Z,49.60
2017-07-29T14:32:43.586Z,49.60
2017-07-29T14:35:10.994Z,50.90
2017-07-29T14:37:38.406Z,52.20
2017-07-29T14:40:05.824Z,50.50
2017-07-29T14:42:33.242Z,48.90
2017-07-29T14:45:00.657Z,48.50
2017-07-29T14:47:28.063Z,48.60
2017-07-29T14:49:55.467Z,49.00
2017-07-29T14:52:22.871Z,49.80
2017-07-29T14:54:50.311Z,50.30
2017-07-29T14:57:17.726Z,50.90
2017-07-29T14:59:45.140Z,51.20
2017-07-29T15:02:12.552Z,51.40
2017-07-29T15:04:39.954Z,51.80
2017-07-29T15:07:07.386Z,52.30
2017-07-29T15:09:34.791Z,52.20
2017-07-29T15:12:02.200Z,52.40
2017-07-29T15:14:29.628Z,52.10
2017-07-29T15:16:57.039Z,52.50
2017-07-29T15:19:24.446Z,53.40
2017-07-29T15:21:52.631Z,53.30
2017-07-29T15:24:20.804Z,52.60
2017-07-29T15:26:49.032Z,52.00
2017-07-29T15:29:16.428Z,51.90
2017-07-29T15:31:43.854Z,51.90
2017-07-29T15:34:11.277Z,51.60
2017-07-29T15:36:38.691Z,52.40
2017-07-29T15:39:06.880Z,52.80
2017-07-29T15:41:34.287Z,52.70
2017-07-29T15:44:01.703Z,52.30
2017-07-29T15:46:29.130Z,52.50
2017-07-29T15:48:57.304Z,51.90
2017-07-29T15:51:25.487Z,51.60
2017-07-29T15:53:52.903Z,51.60
2017-07-29T15:56:20.307Z,51.90
2017-07-29T15:58:47.723Z,52.50
2017-07-29T16:01:15.894Z,53.80
2017-07-29T16:03:43.306Z,53.30
2017-07-29T16:06:11.174Z,53.10
2017-07-29T16:08:38.575Z,53.40
2017-07-29T16:11:05.987Z,53.30
2017-07-29T16:13:33.397Z,53.00
2017-07-29T16:16:01.570Z,52.20
2017-07-29T16:18:29.757Z,52.90
2017-07-29T16:20:57.267Z,53.00
2017-07-29T16:23:24.699Z,53.70
2017-07-29T16:25:52.102Z,53.70
2017-07-29T16:28:20.286Z,54.70
2017-07-29T16:30:48.460Z,55.30
2017-07-29T16:33:16.643Z,55.40
2017-07-29T16:35:45.127Z,55.40
2017-07-29T16:38:13.386Z,55.30
2017-07-29T16:40:41.615Z,55.40
2017-07-29T16:43:09.002Z,55.40
2017-07-29T16:45:37.499Z,54.90
2017-07-29T16:48:05.115Z,54.90
2017-07-29T16:50:32.691Z,55.10
2017-07-29T16:53:00.123Z,55.10
2017-07-29T16:55:27.549Z,55.30
2017-07-29T16:57:54.957Z,55.60
2017-07-29T17:00:22.374Z,56.00
2017-07-29T17:05:26.502Z,56.50
2017-07-29T17:07:53.915Z,56.50
2017-07-29T17:10:22.086Z,56.70
2017-07-29T17:12:50.252Z,56.80
2017-07-29T17:15:18.432Z,57.70
2017-07-29T17:17:46.608Z,57.20
2017-07-29T17:20:14.779Z,57.20
2017-07-29T17:22:42.953Z,57.30
2017-07-29T17:25:11.159Z,57.50
2017-07-29T17:27:38.578Z,57.50
2017-07-29T17:30:06.754Z,57.80
2017-07-29T17:32:35.594Z,58.20
2017-07-29T17:35:03.017Z,58.10
2017-07-29T17:37:30.422Z,58.30
2017-07-29T17:39:57.831Z,58.70
2017-07-29T17:42:25.541Z,58.50
2017-07-29T17:44:52.947Z,58.80
2017-07-29T17:47:20.354Z,58.80
2017-07-29T17:49:47.788Z,58.90
2017-07-29T17:52:15.221Z,59.00
2017-07-29T17:54:43.394Z,59.20
2017-07-29T17:57:10.808Z,59.30
2017-07-29T17:59:38.973Z,59.50
2017-07-29T18:02:06.375Z,59.30
2017-07-29T18:04:33.846Z,59.40
2017-07-29T18:07:01.238Z,59.50
2017-07-29T18:09:29.486Z,60.00
2017-07-29T18:11:56.946Z,59.80
2017-07-29T18:14:24.365Z,60.10
2017-07-29T18:16:51.795Z,60.00
2017-07-29T18:19:19.982Z,60.40
2017-07-29T18:21:47.413Z,60.40
2017-07-29T18:24:14.842Z,60.50
2017-07-29T18:26:42.252Z,61.40
2017-07-29T18:29:09.679Z,60.80
2017-07-29T18:31:37.853Z,62.10
2017-07-29T18:34:06.030Z,60.90
2017-07-29T18:36:34.206Z,60.90
2017-07-29T18:39:02.379Z,61.70
2017-07-29T18:41:30.558Z,61.40
2017-07-29T18:43:58.734Z,61.70
2017-07-29T18:46:26.162Z,61.70
2017-07-29T18:48:53.576Z,61.60
2017-07-29T18:51:20.986Z,62.30
2017-07-29T18:53:49.163Z,62.70
2017-07-29T18:56:16.591Z,62.70
2017-07-29T18:58:44.008Z,63.00
2017-07-29T19:01:11.430Z,63.30
2017-07-29T19:03:39.611Z,64.00
2017-07-29T19:06:07.018Z,64.00
2017-07-29T19:08:34.434Z,64.00
2017-07-29T19:11:02.046Z,63.90
2017-07-29T19:13:29.471Z,64.10
2017-07-29T19:15:56.878Z,64.10
2017-07-29T19:18:25.082Z,64.20
2017-07-29T19:20:52.490Z,64.20
2017-07-29T19:23:19.894Z,64.40
2017-07-29T19:25:47.319Z,64.10
2017-07-29T19:28:15.655Z,64.70
2017-07-29T19:30:43.091Z,64.70
2017-07-29T19:33:10.490Z,64.60
2017-07-29T19:35:38.678Z,66.00
2017-07-29T19:38:06.849Z,64.90
2017-07-29T19:40:35.060Z,65.20
2017-07-29T19:43:02.459Z,65.10
2017-07-29T19:45:29.867Z,65.00
2017-07-29T19:47:57.275Z,64.90
2017-07-29T19:50:25.447Z,65.20
2017-07-29T19:52:52.858Z,65.20
2017-07-29T19:55:20.258Z,65.40
2017-07-29T19:57:47.675Z,66.00
2017-07-29T20:00:15.096Z,66.30
2017-07-29T20:02:42.505Z,66.80
2017-07-29T20:05:09.911Z,67.40
2017-07-29T20:07:37.318Z,67.20
2017-07-29T20:10:04.728Z,67.10
2017-07-29T20:12:32.134Z,67.10
2017-07-29T20:14:59.692Z,67.40
2017-07-29T20:17:27.101Z,67.20
2017-07-29T20:19:54.514Z,67.30
2017-07-29T20:22:22.691Z,67.70
2017-07-29T20:24:50.873Z,67.80
2017-07-29T20:27:19.061Z,68.60
2017-07-29T20:29:46.461Z,68.60
2017-07-29T20:32:13.879Z,68.50
2017-07-29T20:34:41.287Z,68.60
2017-07-29T20:37:08.743Z,68.90
2017-07-29T20:39:36.148Z,68.80
2017-07-29T20:42:03.646Z,69.00
2017-07-29T20:44:31.051Z,69.10
2017-07-29T20:46:58.476Z,69.30
2017-07-29T20:49:26.654Z,69.80
2017-07-29T20:51:54.843Z,70.00
2017-07-29T20:54:22.256Z,70.00
2017-07-29T20:56:49.702Z,70.50
2017-07-29T20:59:17.142Z,70.50
2017-07-29T21:01:44.553Z,71.10
2017-07-29T21:04:11.966Z,71.30
2017-07-29T21:06:39.378Z,71.60
2017-07-29T21:09:06.797Z,71.60
2017-07-29T21:11:35.719Z,72.20
2017-07-29T21:14:03.202Z,72.10
2017-07-29T21:16:30.615Z,72.70
2017-07-29T21:18:58.803Z,73.00
2017-07-29T21:21:26.202Z,73.00
2017-07-29T21:23:53.642Z,73.20
2017-07-29T21:26:21.060Z,73.00
2017-07-29T21:28:49.259Z,73.30
2017-07-29T21:31:16.672Z,73.10
2017-07-29T21:33:44.846Z,74.40
2017-07-29T21:36:13.032Z,74.60
2017-07-29T21:38:41.213Z,74.70
2017-07-29T21:41:08.618Z,74.60
2017-07-29T21:43:36.044Z,74.40
2017-07-29T21:46:03.814Z,74.60
2017-07-29T21:48:31.267Z,74.70
2017-07-29T21:50:58.686Z,74.40
2017-07-29T21:53:26.095Z,74.00
2017-07-29T21:55:53.530Z,74.40
2017-07-29T21:58:20.933Z,74.30
2017-07-29T22:00:49.158Z,74.20
2017-07-29T22:03:16.558Z,74.50
2017-07-29T22:05:43.970Z,74.60
2017-07-29T22:08:11.435Z,74.40
2017-07-29T22:10:38.831Z,74.50
2017-07-29T22:13:07.051Z,74.70
2017-07-29T22:15:34.465Z,74.70
2017-07-29T22:18:02.646Z,75.00
2017-07-29T22:20:30.123Z,74.80
2017-07-29T22:22:57.592Z,74.80
2017-07-29T22:25:25.018Z,74.90
2017-07-29T22:27:52.434Z,75.10
2017-07-29T22:30:19.849Z,75.10
2017-07-29T22:32:47.264Z,75.30
2017-07-29T22:35:14.678Z,75.40
2017-07-29T22:37:42.098Z,75.40
2017-07-29T22:40:09.510Z,75.60
2017-07-29T22:42:36.931Z,75.70
2017-07-29T22:45:04.338Z,75.90
2017-07-29T22:47:32.518Z,76.10
2017-07-29T22:50:01.375Z,76.50
2017-07-29T22:52:28.802Z,76.50
2017-07-29T22:54:56.226Z,76.50
2017-07-29T22:57:24.395Z,76.90
2017-07-29T22:59:52.578Z,76.80
2017-07-29T23:02:20.743Z,77.20
2017-07-29T23:04:48.157Z,77.20
2017-07-29T23:07:15.575Z,77.50
2017-07-29T23:09:42.982Z,78.00
2017-07-29T23:12:10.390Z,78.50
2017-07-29T23:14:37.803Z,79.50
2017-07-29T23:17:05.971Z,81.20
2017-07-29T23:19:34.158Z,81.30
2017-07-29T23:22:02.331Z,81.70
2017-07-29T23:24:30.522Z,81.70
2017-07-29T23:26:57.930Z,82.50
2017-07-29T23:29:25.334Z,82.20
2017-07-29T23:31:52.762Z,82.70
2017-07-29T23:34:20.942Z,83.30
2017-07-29T23:36:49.140Z,83.30
2017-07-29T23:39:16.547Z,83.20
2017-07-29T23:41:43.965Z,83.80
2017-07-29T23:44:11.366Z,84.10
2017-07-29T23:46:39.539Z,84.80
2017-07-29T23:49:07.711Z,84.20
2017-07-29T23:51:35.889Z,84.60
2017-07-29T23:54:04.073Z,85.70
2017-07-29T23:56:32.231Z,84.70
2017-07-29T23:59:00.411Z,84.80
